Date,TemperatureHighF,TemperatureAvgF,TemperatureLowF,DewpointHighF,DewpointAvgF,DewpointLowF,HumidityHigh,HumidityAvg,HumidityLow,PressureMaxIn,PressureMinIn,WindSpeedMaxMPH,WindSpeedAvgMPH,GustSpeedMaxMPH,PrecipitationSumIn
2013-1-1,32.1,26.6,17.0,30.1,23.4,14.6,94,88,75,29.68,25.81,11,1,11,0.00
2013-1-2,21.0,14.8,7.4,14.9,8.6,4.3,99,77,53,30.01,24.49,6,0,6,0.00
2013-1-3,30.2,22.5,13.8,24.7,15.6,5.1,83,74,62,31.68,25.00,19,3,19,0.00
2013-1-4,29.2,24.3,18.9,21.2,17.7,14.3,84,76,66,28.41,26.12,21,4,21,0.00
2013-1-5,37.1,28.6,20.2,30.5,24.0,17.5,91,83,66,29.36,23.93,18,2,18,0.01
2013-1-6,35.4,30.6,24.5,31.8,26.4,19.9,89,84,80,27.05,24.10,25,4,25,0.00
2013-1-7,34.1,27.6,18.8,26.4,22.9,16.6,92,83,71,25.90,24.01,18,2,18,0.01
2013-1-8,43.3,34.3,26.5,31.7,27.3,22.3,85,76,60,25.50,24.16,17,3,17,0.00
2013-1-9,47.4,41.4,33.5,39.0,34.6,29.4,91,77,57,24.86,23.93,18,3,18,0.06
2013-1-10,44.1,35.7,27.8,39.4,30.6,25.6,93,82,69,24.96,24.19,19,3,19,0.06
2013-1-11,57.7,52.5,43.7,52.3,48.1,39.2,95,85,74,24.29,24.18,24,5,24,0.48
2013-1-12,62.7,55.4,51.4,61.2,51.7,46.6,96,87,76,24.33,24.13,21,3,21,1.63
2013-1-13,64.1,41.4,24.7,61.5,39.5,20.2,96,93,85,24.63,23.88,33,4,33,0.89
2013-1-14,24.2,21.0,17.9,20.8,16.6,13.6,88,83,77,24.84,24.11,17,2,17,0.00
2013-1-15,30.0,25.5,19.7,23.3,20.0,16.9,89,80,70,27.06,24.10,13,2,13,0.00
2013-1-16,34.2,29.6,26.0,24.8,23.4,21.3,90,78,61,24.73,23.90,16,2,16,0.00
2013-1-17,38.6,31.7,23.2,29.7,24.2,14.2,83,74,62,24.71,24.05,20,3,20,0.00
2013-1-18,37.5,29.4,20.2,26.4,20.0,14.6,83,69,47,25.54,23.93,28,5,28,0.00
2013-1-19,51.9,43.4,36.7,36.7,30.3,24.7,69,60,48,24.60,24.17,27,6,27,0.00
2013-1-20,45.8,27.1,21.8,36.6,15.8,10.4,73,62,52,24.62,24.06,33,6,33,0.00
2013-1-21,22.4,15.5,8.7,13.7,6.7,-2.1,85,68,56,25.70,24.07,27,7,27,0.00
2013-1-22,14.5,9.4,4.4,1.9,-0.7,-2.7,76,63,51,26.20,24.18,19,4,19,0.00
2013-1-23,21.4,15.8,10.9,14.8,6.2,-0.2,79,66,50,25.88,24.33,23,2,23,0.00
2013-1-24,19.9,17.7,15.3,13.7,10.6,9.3,85,73,67,24.65,24.15,21,6,21,0.00
2013-1-27,36.4,35.8,35.3,34.1,33.6,32.9,92,92,91,24.54,24.24,20,6,20,0.20
2013-1-28,50.5,46.2,36.4,49.3,44.5,34.3,96,94,90,24.46,24.13,23,5,23,0.14
2013-1-29,63.6,56.6,50.4,57.9,53.5,49.3,96,90,82,24.31,24.16,33,9,33,0.00
2013-1-30,65.2,48.0,28.6,58.9,44.6,24.7,95,88,77,24.29,24.16,36,8,36,0.84
2013-1-31,28.6,21.8,11.4,25.0,15.7,3.2,91,77,69,25.58,24.19,31,9,31,0.00
2013-2-1,15.0,10.4,5.3,9.1,3.2,-1.2,82,72,64,27.40,24.34,25,5,25,0.00
2013-2-2,26.6,21.9,14.0,23.4,18.0,7.4,92,85,75,26.13,24.44,16,3,16,0.00
2013-2-3,23.2,18.2,12.7,18.7,13.8,8.3,89,82,75,25.49,24.31,21,3,21,0.00
2013-2-4,33.2,26.5,17.1,29.8,21.6,13.4,92,82,67,24.92,24.16,19,2,19,0.00
2013-2-5,34.6,28.3,22.6,30.8,24.3,20.0,91,85,73,24.67,23.80,19,2,19,0.01
2013-2-6,36.1,31.5,29.1,29.3,23.9,21.0,87,74,59,24.33,24.19,15,2,15,0.00
2013-2-7,51.9,40.6,30.0,41.1,31.7,25.2,92,72,49,24.35,24.20,15,3,15,0.17
2013-2-8,43.3,33.4,27.1,41.4,28.7,21.8,93,83,74,24.53,24.12,24,7,24,0.10
2013-2-9,37.6,29.1,19.9,24.7,22.1,17.6,93,76,54,24.62,23.94,14,1,14,0.00
2013-2-10,50.1,42.4,31.0,46.9,33.2,22.7,93,70,59,24.37,24.14,36,7,36,0.02
2013-2-11,50.5,40.0,31.3,47.5,31.9,24.9,92,73,62,24.34,24.19,33,8,33,0.00
2013-2-12,43.7,33.5,29.2,31.3,26.5,23.3,89,76,54,24.34,24.16,19,3,19,0.00
2013-2-13,40.9,32.3,27.0,29.4,26.0,23.6,89,78,59,24.35,24.15,11,1,11,0.00
2013-2-14,47.2,38.4,33.1,37.8,32.7,29.3,92,80,65,24.33,24.18,26,6,26,0.00
2013-2-15,36.3,30.4,21.6,29.7,25.3,17.9,92,82,69,24.33,24.16,23,2,23,0.00
2013-2-16,23.8,21.4,17.7,20.3,14.5,9.0,92,75,57,24.56,23.96,24,3,24,0.00
2013-2-17,28.7,21.0,12.7,13.7,11.1,8.3,92,66,43,24.85,24.13,11,1,11,0.00
2013-2-18,55.3,40.6,24.6,41.3,27.5,10.5,87,60,50,24.62,23.91,41,8,41,0.18
2013-2-19,45.6,26.8,20.6,41.9,21.5,12.4,93,80,68,24.34,24.19,35,10,39,0.12
2013-2-20,22.6,18.5,12.6,15.3,11.1,6.2,78,72,66,24.69,24.15,22,5,22,0.00
2013-2-21,27.1,24.0,21.0,22.7,18.2,15.2,86,78,72,24.42,24.10,20,4,20,0.00
2013-2-22,35.7,32.5,26.2,34.4,29.9,22.7,95,90,83,24.36,24.18,23,4,23,0.18
2013-2-23,35.1,30.1,25.4,29.6,23.8,21.2,91,77,65,24.38,24.18,17,3,17,0.04
2013-2-24,37.3,29.7,24.4,25.1,22.3,19.4,89,74,58,24.37,24.21,14,2,14,0.01
2013-2-25,43.6,33.0,23.0,28.7,25.2,20.4,91,74,53,24.37,24.24,16,2,16,0.01
2013-2-26,41.8,36.3,32.7,40.3,32.9,26.0,95,88,72,24.34,24.24,25,2,25,1.03
2013-2-27,41.7,35.3,31.1,40.2,33.1,29.0,97,92,85,24.36,24.23,19,5,19,0.08
2013-2-28,37.1,33.9,31.1,33.8,31.2,29.0,100,90,82,24.37,24.24,17,4,17,0.06
2013-3-1,32.7,31.0,27.4,30.7,27.6,20.9,95,87,76,24.36,24.22,12,3,12,0.02
2013-3-2,30.2,27.3,25.3,22.0,20.2,17.5,86,74,64,24.37,24.19,18,4,18,0.00
2013-3-3,30.9,27.5,23.8,23.8,20.6,16.8,89,75,61,24.37,24.22,16,3,16,0.01
2013-3-4,38.1,29.0,17.2,29.1,21.8,14.7,92,75,55,24.37,24.21,11,1,11,0.00
2013-3-5,35.9,32.7,27.4,31.2,29.7,25.9,94,89,78,24.33,24.24,19,3,19,0.06
2013-3-6,32.6,29.6,26.3,30.0,27.7,24.8,95,93,88,24.34,24.25,23,5,23,0.11
2013-3-7,36.5,32.9,30.1,30.8,28.5,26.5,94,84,69,24.32,24.24,11,2,11,0.11
2013-3-8,38.7,32.0,22.6,27.1,24.3,20.1,91,74,57,24.35,24.23,10,1,10,0.00
2013-3-9,50.3,39.8,27.9,36.2,30.4,23.6,84,70,55,24.39,24.23,20,4,20,0.00
2013-3-10,64.1,56.2,49.7,42.0,37.5,34.4,61,50,36,24.29,24.19,30,7,30,0.03
2013-3-11,58.8,47.5,33.8,50.0,42.0,30.5,93,82,50,24.31,24.22,33,7,33,0.35
2013-3-12,42.2,34.5,31.4,31.2,28.0,24.2,93,78,55,24.37,24.23,22,6,22,0.00
2013-3-13,32.3,28.5,25.7,29.0,21.8,17.4,90,76,62,24.44,24.22,22,5,22,0.02
2013-3-14,42.0,31.6,22.1,28.0,19.9,14.5,84,64,34,24.37,24.22,14,2,14,0.00
2013-3-15,48.2,38.7,30.8,39.8,33.5,28.1,92,82,65,24.32,24.23,12,2,12,0.02
2013-3-16,44.3,39.4,32.6,40.7,36.7,28.6,95,90,83,24.31,24.22,18,3,18,0.01
2013-3-17,36.4,32.3,28.9,28.6,25.7,20.9,87,77,67,24.33,24.23,19,3,19,0.00
2013-3-18,42.3,35.7,31.2,41.0,33.5,26.7,95,92,81,24.32,24.23,21,3,21,0.46
2013-3-19,38.4,31.2,25.3,33.6,19.6,15.3,87,63,44,24.29,24.24,33,9,33,0.00
2013-3-20,32.8,27.3,22.3,20.2,15.4,8.8,73,61,48,24.32,24.21,24,6,24,0.00
2013-3-21,31.4,24.6,17.1,16.9,14.1,11.2,79,65,49,24.32,24.32,15,3,16,0.00
2013-3-22,41.7,30.8,18.9,21.1,18.0,15.4,87,61,38,24.32,24.21,15,1,15,0.00
2013-3-23,45.4,35.9,28.4,26.5,22.6,18.9,79,60,37,24.29,24.23,14,2,14,0.00
2013-3-24,33.9,31.0,27.9,29.5,26.9,24.8,94,85,73,24.33,24.23,28,5,28,0.02
2013-3-25,32.6,30.2,27.9,31.6,28.9,26.4,96,95,94,24.34,24.24,23,6,23,0.14
2013-3-26,37.9,33.3,30.6,32.0,29.6,27.2,95,87,69,24.33,24.23,18,4,18,0.01
2013-3-27,41.6,34.5,29.4,28.4,25.8,22.4,85,71,51,24.33,24.23,17,2,17,0.00
2013-3-28,46.2,37.9,33.4,29.7,26.2,23.0,79,63,49,24.32,24.22,17,2,17,0.00
2013-3-29,52.2,39.9,31.5,34.0,29.6,26.8,84,68,46,24.34,24.19,15,1,15,0.00
2013-3-30,55.9,44.5,35.6,36.5,31.9,29.5,80,64,40,24.33,24.19,17,2,17,0.00
2013-3-31,59.2,50.9,48.8,43.5,38.0,35.5,81,62,45,24.29,24.18,23,2,23,0.04
2013-4-1,49.3,43.6,36.0,42.7,30.2,16.3,78,61,37,24.30,24.18,23,5,23,0.00
2013-4-2,42.7,37.8,33.0,20.0,17.7,14.0,53,44,33,24.32,24.19,19,2,20,0.00
2013-4-3,46.0,39.6,36.3,22.1,18.1,13.7,52,42,34,24.32,24.18,16,2,16,0.00
2013-4-4,57.4,44.8,37.9,22.7,20.3,15.7,51,39,21,24.31,24.19,13,1,13,0.00
2013-4-5,54.7,48.5,45.5,32.9,24.4,20.8,52,39,30,24.29,24.19,18,2,18,0.00
2013-4-6,65.2,53.5,46.5,37.8,28.8,23.5,43,39,31,24.28,24.18,31,4,31,0.00
2013-4-7,70.0,62.8,59.6,45.1,39.6,35.8,54,43,30,30.48,20.81,23,4,23,0.00
2013-4-8,70.3,63.3,59.6,56.8,48.3,42.0,70,58,52,30.35,24.17,29,2,29,0.00
2013-4-9,79.6,70.0,64.1,59.8,55.5,54.0,70,61,42,24.19,20.66,31,3,32,0.00
2013-4-10,79.7,68.5,54.8,65.3,57.9,52.5,94,70,57,31.07,20.64,32,4,32,0.92
2013-4-11,54.8,54.8,54.8,52.5,52.5,52.5,92,92,92,24.19,24.16,15,15,15,0.00
2013-4-12,54.8,54.8,54.8,52.5,52.5,52.5,92,92,92,24.31,24.15,15,15,15,0.00
2013-4-13,54.8,50.2,40.2,52.5,44.7,31.2,92,82,57,24.31,24.19,19,11,20,0.00
2013-4-14,67.8,52.1,40.2,46.2,39.0,28.2,75,63,43,24.29,24.00,17,2,17,0.00
2013-4-15,68.6,62.6,59.4,55.7,49.8,45.5,70,63,60,24.19,23.58,25,4,25,0.00
2013-4-16,64.0,58.2,50.0,53.6,51.4,42.9,95,79,69,24.28,24.17,18,4,18,1.25
2013-4-17,72.3,58.4,50.0,65.5,54.4,47.2,90,87,78,24.20,17.30,15,1,15,0.00
2013-4-18,77.6,67.4,60.5,64.6,62.0,57.2,93,83,60,24.19,20.67,40,3,40,0.20
2013-4-19,60.5,60.5,60.5,58.5,58.5,58.5,93,93,93,24.28,24.14,0,0,0,0.00
2013-4-20,60.5,49.6,37.5,58.5,40.1,23.6,93,71,47,24.31,24.16,19,2,19,0.00
2013-4-21,52.7,44.1,39.5,32.1,27.5,21.2,60,53,38,24.32,24.19,15,1,15,0.00
2013-4-22,66.9,53.9,44.7,42.3,34.1,23.6,61,49,29,24.27,24.14,15,1,15,0.00
2013-4-23,54.4,54.4,54.4,40.4,40.4,40.4,59,59,59,24.19,20.65,0,0,0,0.00
2013-4-24,54.4,50.5,41.9,40.4,38.7,29.2,84,64,59,24.29,20.72,22,1,22,0.00
2013-4-25,52.4,45.6,41.8,39.1,32.7,25.0,72,62,37,24.25,20.74,26,3,29,0.00
2013-4-26,60.3,49.3,41.8,40.3,34.0,31.3,69,57,40,24.29,24.19,14,1,14,0.00
2013-4-27,66.0,56.1,50.1,49.8,42.1,34.1,79,61,35,24.26,24.18,21,2,21,0.00
2013-4-28,56.0,56.0,56.0,49.6,49.6,49.6,79,79,79,24.19,24.17,0,0,0,0.00
2013-5-4,62.9,62.1,61.2,48.2,46.6,45.0,62,57,55,24.18,17.28,2,0,2,0.00
2013-5-5,62.2,62.2,62.2,46.8,46.8,46.8,57,57,57,24.18,17.28,0,0,0,0.00
2013-5-6,66.8,63.3,61.1,55.7,50.8,46.8,82,64,57,24.19,20.71,17,2,17,0.01
2013-5-7,73.1,64.7,61.2,59.6,55.5,51.8,87,73,52,24.18,20.67,15,1,15,0.02
2013-5-8,77.5,65.7,61.8,58.9,56.4,50.3,87,74,40,30.51,20.66,16,1,16,0.08
2013-5-9,79.0,66.2,60.5,58.4,56.3,47.7,92,73,34,30.53,20.61,27,1,27,0.06
2013-5-10,60.9,60.9,60.9,57.6,57.6,57.6,89,89,89,30.47,20.72,0,0,0,0.00
2013-5-11,60.9,57.1,45.9,57.6,51.9,37.9,89,83,70,24.20,20.74,24,2,24,0.00
2013-5-12,53.7,47.8,45.1,38.1,33.7,26.7,74,60,36,30.59,20.76,22,3,22,0.00
2013-5-13,61.4,51.0,45.1,35.3,30.4,21.5,63,48,24,24.20,20.57,21,2,21,0.00
2013-5-14,84.2,63.7,49.1,60.2,46.0,35.0,63,53,40,31.68,20.12,28,3,28,0.00
2013-5-15,86.2,77.5,72.9,62.8,59.8,54.4,63,55,38,31.42,20.64,21,5,22,0.00
2013-5-16,79.8,75.4,68.0,62.4,60.5,53.5,80,60,45,31.98,20.11,10,1,10,0.00
2013-5-17,80.5,69.5,63.7,65.8,62.1,59.4,94,78,53,30.69,20.64,22,2,22,0.14
2013-5-18,77.2,68.8,63.7,65.3,62.7,61.5,94,82,62,32.15,20.65,13,1,13,0.00
2013-5-19,82.8,74.1,68.7,67.0,64.0,62.6,81,72,53,30.70,20.64,14,1,14,0.00
2013-5-20,85.0,77.2,73.5,70.3,66.0,64.7,79,69,54,31.43,20.64,21,2,21,0.00
2013-5-21,83.2,76.9,72.7,66.0,64.3,60.0,73,66,48,31.44,20.11,26,4,26,0.00
2013-5-22,75.3,70.3,62.7,65.7,61.1,54.9,94,73,60,31.42,20.10,29,3,29,0.28
2013-5-23,65.5,59.8,51.3,59.4,55.9,49.1,93,87,73,26.52,20.69,20,3,20,0.05
2013-5-24,63.6,55.3,50.0,50.0,44.1,35.0,92,69,36,24.20,24.17,15,4,15,0.00
2013-5-25,63.4,56.0,51.1,51.1,42.2,38.3,72,61,41,24.19,24.17,10,0,10,0.00
2013-5-26,68.6,61.5,57.2,50.8,44.5,38.8,64,54,38,30.48,20.80,12,1,12,0.00
2013-5-27,76.5,65.2,59.8,65.9,54.8,47.3,94,70,58,30.46,20.13,23,2,23,0.61
2013-5-28,80.7,71.5,64.6,68.2,64.5,62.8,94,80,61,32.31,20.11,33,2,33,0.00
2013-5-29,85.2,78.0,74.6,65.2,62.8,59.1,68,60,42,30.68,20.11,19,2,19,0.00
2013-6-22,88.2,79.2,70.8,72.3,68.4,66.1,85,71,53,31.41,17.17,19,2,19,0.06
2013-6-23,86.8,73.6,68.9,71.0,66.7,64.7,93,80,52,31.44,20.63,20,1,20,0.05
2013-6-24,84.7,74.9,68.9,76.3,67.8,66.2,93,80,58,31.45,20.64,16,1,16,0.05
2013-6-25,89.2,79.6,73.9,74.0,70.0,68.8,84,74,52,30.65,20.64,18,2,18,0.00
2013-6-26,84.5,78.5,69.8,74.0,70.4,63.8,93,77,66,28.92,20.64,29,2,29,0.59
2013-6-27,84.8,76.1,72.1,70.6,68.1,67.2,85,77,60,32.16,20.60,20,1,20,0.00
2013-6-28,82.0,73.0,64.1,67.2,64.7,57.9,92,76,48,32.38,19.57,28,2,28,0.16
2013-6-29,73.5,66.1,64.3,65.8,62.5,61.1,93,89,71,30.43,19.57,11,0,11,0.22
2013-6-30,72.8,67.2,64.5,65.2,62.1,60.1,91,84,70,32.38,20.58,18,1,18,0.01
2013-7-1,69.2,67.0,64.4,63.5,61.0,58.2,88,81,77,29.86,17.12,19,2,19,0.00
2013-7-2,77.7,68.3,64.8,67.9,63.1,60.5,93,84,70,32.44,17.12,20,3,20,0.48
2013-7-3,80.3,71.6,66.4,67.6,65.0,63.3,93,81,59,30.14,20.11,15,1,19,0.00
2013-7-4,76.5,72.5,68.8,67.8,66.6,64.6,92,82,68,32.08,16.91,9,1,9,0.01
2013-7-5,78.9,72.3,68.8,68.2,66.6,65.3,92,83,65,32.38,16.91,11,1,11,0.00
2013-7-6,71.4,71.4,71.4,67.3,67.3,67.3,87,87,87,31.43,20.65,3,3,3,0.00
2013-7-7,79.8,74.0,71.4,69.8,67.9,66.2,87,82,70,25.53,20.14,12,2,12,0.00
2013-7-8,83.7,77.5,73.3,73.5,70.0,68.2,84,78,67,30.66,20.10,14,1,19,0.00
2013-7-9,87.9,80.9,77.5,76.1,72.7,71.2,82,77,64,30.66,20.63,14,1,14,0.00
2013-7-10,85.5,78.7,69.1,76.7,71.8,65.2,92,80,64,30.70,20.64,35,3,35,0.12
2013-7-11,76.9,72.8,65.1,65.2,61.6,55.3,81,69,48,30.13,20.23,15,3,17,0.00
2013-7-12,77.8,69.7,65.1,60.9,59.1,56.6,81,70,50,25.51,20.24,14,1,14,0.00
2013-7-13,83.3,73.9,68.5,66.4,62.5,60.3,76,68,52,25.12,20.21,15,1,15,0.00
2013-7-14,87.9,78.7,72.8,73.2,68.1,64.8,80,70,56,30.14,20.63,12,0,12,0.00
2013-7-15,88.5,81.9,77.6,72.2,71.3,68.9,80,71,54,30.70,20.63,12,1,12,0.00
2013-7-16,88.9,81.6,77.6,74.6,71.9,69.7,85,73,56,30.66,20.10,11,0,11,0.00
2013-7-17,78.3,78.3,78.3,73.4,73.4,73.4,85,85,85,30.65,20.63,0,0,0,0.00
2013-7-18,78.3,78.3,78.3,73.4,73.4,73.4,85,85,85,0.00,40.00,0,0,0,0.00
2013-7-19,78.3,78.3,78.3,73.4,73.4,73.4,85,85,85,0.00,40.00,0,0,0,0.00
2013-7-20,78.3,78.3,78.3,73.4,73.4,73.4,85,85,85,0.00,40.00,0,0,0,0.00
2013-7-21,78.3,78.3,78.3,73.4,73.4,73.4,85,85,85,0.00,40.00,0,0,0,0.00
2013-7-22,78.3,78.3,78.3,73.4,73.4,73.4,85,85,85,0.00,40.00,0,0,0,0.00
2013-7-23,78.3,78.3,78.3,73.4,73.4,73.4,85,85,85,0.00,40.00,0,0,0,0.00
2013-7-24,78.3,78.3,78.3,73.4,73.4,73.4,85,85,85,0.00,40.00,0,0,0,0.00
2013-7-25,78.3,78.3,78.3,73.4,73.4,73.4,85,85,85,0.00,40.00,0,0,0,0.00
2013-7-26,78.3,78.3,78.3,73.4,73.4,73.4,85,85,85,0.00,40.00,0,0,0,0.00
2013-7-27,78.3,78.3,78.3,73.4,73.4,73.4,85,85,85,0.00,40.00,0,0,0,0.00
2013-7-28,78.3,78.3,78.3,73.4,73.4,73.4,85,85,85,0.00,40.00,0,0,0,0.00
2013-7-29,78.3,78.3,78.3,73.4,73.4,73.4,85,85,85,0.00,40.00,0,0,0,0.00
2013-7-30,78.3,78.3,78.3,73.4,73.4,73.4,85,85,85,0.00,40.00,0,0,0,0.00
2013-7-31,78.3,74.6,68.7,73.4,69.2,62.6,85,83,81,22.64,20.14,0,0,0,0.00
2013-8-1,79.3,72.0,66.9,63.3,60.9,55.7,81,70,45,30.13,20.11,21,1,21,0.00
2013-8-2,83.2,72.0,66.9,65.7,61.1,58.3,77,69,52,31.05,20.11,17,2,17,0.00
2013-8-3,80.5,73.4,66.8,65.9,63.1,55.6,87,71,53,31.98,20.10,16,2,16,0.00
2013-8-4,75.5,69.0,62.9,57.8,55.8,52.7,79,64,47,31.44,20.65,15,1,15,0.00
2013-8-5,78.5,66.7,62.4,63.5,57.9,56.3,91,74,49,31.05,20.11,11,0,11,0.04
2013-8-6,78.8,68.5,62.4,69.7,63.9,59.7,91,86,73,32.24,20.11,12,0,12,0.00
2013-8-7,82.7,75.1,71.2,72.4,69.5,65.1,89,83,69,31.96,20.10,13,0,13,0.00
2013-8-8,81.7,75.2,71.2,72.8,71.1,68.6,95,87,74,31.96,20.10,13,1,13,0.81
2013-8-9,81.3,73.8,71.1,68.8,67.0,62.2,92,80,55,30.68,20.12,11,2,11,0.00
2013-8-10,83.5,75.4,71.1,68.8,65.6,62.7,81,73,55,30.13,20.64,14,0,14,0.00
2013-8-11,82.1,75.4,69.7,68.4,65.7,61.4,83,73,50,30.66,20.64,11,1,13,0.00
2013-8-12,82.2,74.3,69.7,68.1,65.2,59.5,83,74,49,30.66,20.10,15,1,15,0.00
2013-8-13,73.6,70.3,59.3,66.3,59.5,48.2,78,69,48,31.98,20.12,21,2,21,0.00
2013-8-14,67.8,61.4,56.8,52.5,50.1,46.9,82,67,50,29.91,20.66,13,1,13,0.00
2013-8-15,71.5,62.6,56.8,54.9,51.5,48.1,82,69,48,31.98,20.66,5,0,8,0.00
2013-8-16,73.5,65.4,61.0,59.5,54.9,51.7,81,70,48,31.98,20.65,12,0,12,0.01
2013-8-17,78.5,68.9,62.7,59.8,57.5,55.5,81,69,48,29.46,20.65,13,0,13,0.00
2013-8-18,80.9,71.6,66.7,61.7,59.4,56.4,79,67,44,31.99,20.64,12,1,12,0.00
2013-8-19,82.4,72.7,66.7,64.3,61.0,59.2,82,68,47,32.29,20.64,11,0,11,0.00
2013-8-20,83.9,74.8,69.3,67.1,63.9,61.1,82,70,48,30.17,20.64,12,0,12,0.00
2013-8-21,87.0,77.9,73.2,71.1,66.1,62.7,78,68,46,30.13,20.64,11,0,11,0.00
2013-8-22,80.9,74.6,69.0,71.0,68.0,66.9,93,80,68,30.14,20.12,19,0,19,0.17
2013-8-23,81.3,72.2,67.2,68.3,65.7,61.4,93,81,53,32.26,20.12,12,0,12,0.00
2013-8-24,83.0,72.6,67.2,62.4,60.2,54.7,82,67,41,31.98,20.64,9,0,9,0.00
2013-8-25,86.5,74.7,68.1,63.5,60.5,54.5,79,64,35,32.30,20.11,11,0,11,0.00
2013-8-26,87.3,77.1,71.0,72.7,65.4,61.1,78,68,52,31.06,20.10,15,1,15,0.00
2013-8-27,91.0,80.9,76.0,74.8,69.9,66.1,80,70,46,31.03,20.64,15,1,15,0.00
2013-8-28,87.7,81.5,78.4,74.8,71.8,70.0,84,73,62,27.62,20.13,17,1,17,0.00
2013-8-29,84.7,79.2,73.1,73.2,70.8,67.1,90,76,57,30.13,20.64,11,0,11,0.00
2013-8-30,90.3,79.9,73.9,70.5,68.7,66.3,83,70,46,30.14,24.58,14,1,14,0.00
2013-8-31,88.3,77.0,69.2,69.9,68.2,63.2,93,76,44,30.68,20.63,24,1,24,1.34
2013-9-1,83.0,74.8,70.9,72.2,69.1,67.5,89,83,68,30.67,20.64,11,0,11,0.00
2013-9-2,80.5,74.8,68.4,69.8,65.9,57.9,86,75,50,30.67,20.11,17,1,17,0.00
2013-9-3,72.3,67.8,62.0,59.0,57.2,50.9,82,69,57,32.00,20.65,18,1,18,0.00
2013-9-4,80.8,68.7,62.2,59.9,57.4,51.9,82,69,43,31.96,20.65,15,1,15,0.00
2013-9-5,80.0,71.1,67.0,64.3,59.6,55.7,76,68,53,26.42,20.15,13,1,13,0.00
2013-9-6,81.9,70.6,66.3,58.4,54.7,46.6,73,59,33,30.67,20.64,7,0,7,0.00
2013-9-7,86.1,74.3,66.3,66.8,61.1,55.0,73,64,47,30.12,20.64,14,1,14,0.00
2013-9-8,84.8,77.7,71.4,69.3,65.8,64.4,81,67,53,30.13,24.61,14,1,14,0.00
2013-9-9,90.3,79.1,71.4,70.6,67.8,65.3,81,69,50,24.61,24.61,19,1,19,0.00
2013-9-10,95.3,83.9,77.1,74.6,69.3,65.5,76,63,39,24.61,24.61,25,1,25,0.00
2013-9-11,93.5,82.8,77.1,72.1,67.0,61.5,79,61,37,24.61,24.61,15,1,15,0.00
2013-9-12,80.6,78.5,69.5,67.0,62.1,55.3,73,57,45,24.61,24.61,20,1,20,0.00
2013-9-13,69.5,63.6,54.4,58.1,50.1,42.4,72,62,47,26.45,20.13,18,4,18,0.00
2013-9-14,71.0,59.3,54.7,48.9,43.6,37.3,74,58,31,30.70,17.30,10,1,10,0.00
2013-9-15,74.7,62.3,56.4,55.7,49.4,46.0,89,65,37,31.44,17.29,18,1,18,0.09
2013-9-16,62.8,58.7,53.7,55.2,53.7,50.5,89,84,70,29.37,17.29,14,1,14,0.00
2013-9-17,73.0,61.1,53.7,54.1,51.3,49.0,89,72,43,30.70,19.63,9,0,11,0.00
2013-9-18,80.8,69.5,61.7,62.6,55.8,50.1,74,63,39,30.16,19.63,7,0,7,0.00
2013-9-19,78.0,72.5,69.0,69.3,65.6,60.5,95,79,74,31.43,20.11,15,1,15,0.27
2013-9-20,81.3,72.6,67.5,70.1,67.8,64.5,95,85,68,29.86,20.11,17,2,17,0.45
2013-9-21,68.8,65.1,57.7,65.7,57.0,47.1,94,77,49,30.69,20.14,19,2,19,0.00
2013-9-22,66.5,59.3,54.7,47.7,46.3,41.9,73,63,44,30.56,20.13,14,1,14,0.00
2013-9-23,69.1,59.8,55.5,48.5,47.2,45.6,73,64,44,32.26,20.13,13,1,13,0.00
2013-9-24,73.0,62.0,56.8,50.5,48.6,47.8,74,63,42,32.00,20.65,10,0,10,0.00
2013-9-25,74.3,65.2,60.7,53.3,49.6,47.5,74,58,39,29.99,20.12,12,1,12,0.00
2013-9-26,78.7,66.4,57.9,56.7,52.6,47.2,90,62,40,32.00,20.65,10,0,10,0.00
2013-9-27,79.7,67.7,60.1,54.9,51.1,43.8,75,58,30,26.97,20.65,8,0,8,0.00
2013-9-28,80.3,70.2,63.7,57.1,53.5,50.4,71,56,40,30.41,23.54,11,1,15,0.00
2013-9-29,70.0,70.0,70.0,56.8,56.8,56.8,63,63,63,30.42,23.03,0,0,0,0.00
2013-9-30,73.3,68.6,60.9,62.2,58.8,48.1,97,72,62,30.42,20.66,13,0,17,0.00
2013-10-1,74.8,66.3,63.2,63.6,60.8,59.6,90,83,66,30.39,23.01,9,0,13,0.00
2013-10-2,79.5,68.3,64.0,67.6,62.8,59.7,90,83,65,26.44,20.64,9,0,9,0.01
2013-10-3,80.8,72.1,68.2,68.8,65.2,63.3,93,80,59,24.61,20.11,14,1,14,0.00
2013-10-4,81.0,74.3,72.0,69.8,66.0,64.0,84,76,61,25.15,20.66,13,0,13,0.00
2013-10-5,75.3,72.0,68.9,70.2,67.7,63.8,96,86,81,24.59,22.08,22,2,22,0.05
2013-10-6,69.5,69.5,69.5,67.7,67.7,67.7,94,94,94,32.01,20.67,2,2,2,0.00
2013-10-7,69.5,59.6,46.7,67.7,54.5,42.6,94,84,64,31.09,20.67,18,2,18,0.00
2013-10-8,69.8,57.1,49.4,51.5,46.5,42.9,89,71,40,29.91,20.66,9,0,9,0.00
2013-10-9,73.5,60.6,54.0,50.9,47.9,45.7,78,65,39,31.98,20.12,12,0,12,0.00
2013-10-10,74.0,62.7,57.1,50.8,48.4,42.5,76,62,35,30.70,20.12,7,0,7,0.00
2013-10-11,79.3,64.5,57.1,54.8,50.8,47.3,77,64,37,32.24,20.65,10,0,10,0.00
2013-10-12,79.3,67.2,61.0,57.2,54.6,50.5,78,66,38,30.40,20.65,11,0,11,0.00
2013-10-13,69.1,63.5,56.9,55.7,48.8,37.5,77,61,32,30.40,20.63,13,1,13,0.00
2013-10-14,68.3,60.1,56.0,50.8,44.9,41.0,80,58,39,30.44,20.62,9,1,9,0.00
2013-10-15,57.3,57.3,57.3,46.0,46.0,46.0,66,66,66,32.01,20.63,0,0,0,0.00
2013-10-16,61.7,56.4,50.2,47.7,45.3,42.4,77,67,54,30.42,17.20,18,1,18,0.00
2013-10-17,50.6,49.4,46.0,47.7,43.3,41.9,92,79,75,32.24,20.16,16,1,16,0.00
2013-10-18,64.3,53.0,46.0,49.0,43.8,42.1,87,73,46,32.00,20.67,20,2,20,0.00
2013-11-6,50.6,50.6,50.6,41.2,41.2,41.2,70,70,70,26.99,20.67,0,0,0,0.07
2013-11-7,50.6,46.2,36.8,41.2,34.0,25.7,78,63,44,30.77,20.14,19,2,19,0.00
2013-11-8,48.7,43.2,33.4,33.2,31.5,21.6,88,63,49,32.01,20.15,13,0,13,0.00
2013-11-9,59.9,50.0,42.3,41.1,36.6,31.8,66,60,49,30.74,19.60,25,2,25,0.00
2013-11-10,53.5,46.1,38.2,40.8,34.8,26.8,74,65,56,27.02,19.60,20,1,20,0.00
2013-11-11,49.9,43.2,38.2,39.5,34.3,30.7,82,71,56,30.45,20.15,19,2,19,0.00
2013-11-12,43.5,35.9,26.3,38.4,29.4,20.4,82,77,60,32.18,20.67,18,3,18,0.00
2013-11-13,38.1,32.6,24.2,25.3,21.5,15.4,82,65,43,32.18,20.67,17,2,17,0.00
2013-11-14,33.3,33.3,33.3,20.5,20.5,20.5,59,59,59,31.52,29.01,0,0,0,0.00
2013-11-28,29.4,29.4,29.4,17.6,17.6,17.6,61,61,61,20.72,20.69,0,0,0,0.00
2013-11-29,37.4,31.6,26.2,24.3,20.5,14.2,83,63,56,30.58,20.17,9,0,9,0.00
2013-11-30,49.4,38.6,31.4,30.7,26.3,21.7,75,61,48,32.21,20.17,20,2,20,0.00
2013-12-1,50.0,43.3,37.4,37.5,32.6,24.8,75,66,61,32.03,20.14,12,2,12,0.00
2013-12-2,44.4,41.3,37.4,36.5,35.0,30.1,85,78,73,31.11,20.67,7,0,7,0.00
2013-12-3,50.5,44.0,39.2,46.2,40.5,35.0,95,88,84,32.41,20.67,13,2,13,0.00
2013-12-4,46.8,46.8,46.8,43.7,43.7,43.7,89,89,89,30.44,20.14,2,2,2,0.00
2013-12-5,46.8,40.6,30.3,43.7,36.8,25.5,89,86,76,30.42,20.67,15,2,15,0.00
2013-12-6,30.3,30.3,30.3,26.1,26.1,26.1,84,84,84,27.03,20.67,0,0,0,0.00
2013-12-7,30.3,25.0,15.9,26.1,19.2,11.7,86,78,66,30.64,20.67,13,1,13,0.05
2013-12-8,21.4,21.4,21.4,15.3,15.3,15.3,77,77,77,30.60,20.67,0,0,0,0.00
2013-12-9,26.2,22.4,21.4,19.7,16.2,15.3,78,77,75,30.72,20.67,18,2,18,0.00
2013-12-10,26.3,23.1,13.3,17.2,14.8,7.4,78,70,56,23.63,20.73,17,5,21,0.00
2013-12-11,26.7,23.4,21.0,21.3,16.1,13.5,85,74,66,24.68,20.67,16,5,16,0.00
2013-12-12,21.1,17.5,5.5,14.7,8.5,-0.7,78,68,54,27.05,20.72,19,3,19,0.00
2013-12-13,32.2,24.5,17.0,21.9,15.2,7.3,71,67,63,30.67,20.67,14,2,14,0.01
2013-12-14,30.0,30.0,30.0,21.8,21.8,21.8,71,71,71,30.70,20.67,0,0,0,0.00
2013-12-15,30.0,23.6,16.1,21.8,16.9,10.1,82,75,71,27.07,20.19,26,2,26,0.00
2013-12-16,20.0,20.0,20.0,14.0,14.0,14.0,77,77,77,29.98,20.67,0,0,0,0.00
2013-12-17,27.7,23.1,20.0,24.8,18.4,14.0,91,82,77,27.06,20.67,15,2,15,0.00
2013-12-18,31.1,28.1,18.9,24.6,20.5,13.9,88,74,58,30.58,20.67,22,7,22,0.06
2013-12-19,46.1,39.2,31.0,38.8,29.3,18.0,76,67,58,32.20,20.16,18,10,18,0.23
2013-12-20,45.3,45.3,45.3,37.5,37.5,37.5,74,74,74,32.01,20.67,4,4,4,0.00
2013-12-21,45.3,45.3,45.3,37.5,37.5,37.5,74,74,74,30.42,20.67,4,4,4,0.00
2013-12-22,45.3,45.3,45.3,37.5,37.5,37.5,74,74,74,29.88,19.60,4,4,4,0.00
2013-12-23,45.3,45.3,45.3,37.5,37.5,37.5,74,74,74,32.39,19.60,4,4,4,0.00
2013-12-24,45.3,27.2,7.0,37.5,20.7,2.3,81,77,73,32.39,20.14,13,2,13,0.00
2013-12-25,16.7,14.1,0.0,11.9,10.0,0.0,81,68,81,31.47,20.67,0,0,0,0.00
2013-12-26,34.9,18.8,0.0,24.7,12.8,0.0,74,40,55,31.47,20.14,18,1,18,0.00
2013-12-27,43.9,36.1,31.6,33.4,28.5,24.3,79,74,65,29.94,17.23,15,1,15,0.00
2013-12-28,50.0,41.6,37.1,36.5,33.1,30.7,81,72,59,30.45,17.23,19,5,19,0.00
2013-12-29,44.7,39.2,32.8,35.6,32.5,30.7,92,78,66,30.45,20.16,28,8,28,0.00
2013-12-30,32.8,25.3,19.5,30.7,20.5,12.5,92,82,70,30.47,20.63,12,0,12,0.00
2013-12-31,28.2,23.3,18.9,19.1,15.9,13.8,80,73,64,32.48,20.19,18,1,18,0.00
2014-1-1,27.6,27.6,27.6,19.1,19.1,19.1,70,70,70,32.48,20.67,0,0,0,0.00
2014-1-2,27.6,20.9,13.1,19.1,15.2,10.2,89,79,70,32.39,20.63,25,3,25,0.00